createdAt,value
2019-02-26T00:00:14.720Z,9.21
2019-02-26T00:01:16.402Z,9.21
2019-02-26T00:02:14.859Z,9.24
2019-02-26T00:03:13.729Z,9.14
2019-02-26T00:04:13.721Z,9.19
2019-02-26T00:05:17.298Z,9.26
2019-02-26T00:06:16.148Z,9.19
2019-02-26T00:07:16.288Z,9.15
2019-02-26T00:08:14.566Z,9.21
2019-02-26T00:09:18.157Z,9.19
2019-02-26T00:10:14.651Z,9.18
2019-02-26T00:11:13.659Z,9.05
2019-02-26T00:12:13.703Z,9.15
2019-02-26T00:13:13.631Z,9.06
2019-02-26T00:14:17.535Z,9.11
2019-02-26T00:15:13.595Z,9.15
2019-02-26T00:16:15.832Z,9.08
2019-02-26T00:17:15.206Z,9.19
2019-02-26T00:18:14.425Z,9.03
2019-02-26T00:19:14.367Z,9.03
2019-02-26T00:20:17.040Z,9.10
2019-02-26T00:21:13.546Z,8.99
2019-02-26T00:22:13.808Z,8.96
2019-02-26T00:23:13.536Z,9.02
2019-02-26T00:24:14.623Z,9.00
2019-02-26T00:25:15.482Z,9.00
2019-02-26T00:26:15.605Z,8.95
2019-02-26T00:27:13.479Z,8.99
2019-02-26T00:28:15.394Z,8.99
2019-02-26T00:29:13.437Z,8.95
2019-02-26T00:30:15.722Z,8.99
2019-02-26T00:31:13.500Z,8.99
2019-02-26T00:32:13.940Z,8.88
2019-02-26T00:33:13.406Z,8.96
2019-02-26T00:34:16.032Z,8.87
2019-02-26T00:35:13.375Z,8.88
2019-02-26T00:36:15.305Z,8.91
2019-02-26T00:37:13.356Z,8.85
2019-02-26T00:38:15.465Z,8.87
2019-02-26T00:39:13.326Z,8.73
2019-02-26T00:40:14.624Z,8.88
2019-02-26T00:41:13.328Z,8.82
2019-02-26T00:42:13.341Z,8.77
2019-02-26T00:43:13.286Z,8.80
2019-02-26T00:44:13.289Z,8.80
2019-02-26T00:45:13.357Z,8.80
2019-02-26T00:46:13.274Z,8.81
2019-02-26T00:47:13.254Z,8.75
2019-02-26T00:48:13.233Z,8.80
2019-02-26T00:49:13.215Z,8.73
2019-02-26T00:50:14.255Z,8.73
2019-02-26T00:51:13.219Z,8.70
2019-02-26T00:52:15.165Z,8.73
2019-02-26T00:53:13.180Z,8.70
2019-02-26T00:54:13.174Z,8.60
2019-02-26T00:55:13.184Z,8.70
2019-02-26T00:56:13.159Z,8.62
2019-02-26T00:57:13.991Z,8.55
2019-02-26T00:58:13.118Z,8.62
2019-02-26T00:59:13.115Z,8.72
2019-02-26T01:00:13.101Z,8.64
2019-02-26T01:01:15.259Z,8.63
2019-02-26T01:02:13.069Z,8.63
2019-02-26T01:03:13.588Z,8.66
2019-02-26T01:04:13.052Z,8.63
2019-02-26T01:05:15.467Z,8.69
2019-02-26T01:06:13.074Z,8.62
2019-02-26T01:07:13.008Z,8.62
2019-02-26T01:08:15.175Z,8.64
2019-02-26T01:09:13.043Z,8.63
2019-02-26T01:10:13.963Z,8.62
2019-02-26T01:11:12.974Z,8.67
2019-02-26T01:12:13.699Z,8.63
2019-02-26T01:13:12.980Z,8.64
2019-02-26T01:14:13.610Z,8.59
2019-02-26T01:15:14.051Z,8.62
2019-02-26T01:16:12.923Z,8.60
2019-02-26T01:17:14.871Z,8.51
2019-02-26T01:18:12.896Z,8.64
2019-02-26T01:19:14.785Z,8.55
2019-02-26T01:20:12.945Z,8.60
2019-02-26T01:21:12.862Z,8.52
2019-02-26T01:22:12.863Z,8.44
2019-02-26T01:23:12.828Z,8.49
2019-02-26T01:24:12.881Z,8.44
2019-02-26T01:25:14.783Z,8.47
2019-02-26T01:26:12.807Z,8.42
2019-02-26T01:27:12.814Z,8.48
2019-02-26T01:28:16.087Z,8.42
2019-02-26T01:29:16.069Z,8.47
2019-02-26T01:30:12.757Z,8.38
2019-02-26T01:31:12.841Z,8.31
2019-02-26T01:32:15.170Z,8.27
2019-02-26T01:33:12.749Z,8.38
2019-02-26T01:34:14.047Z,8.38
2019-02-26T01:35:13.014Z,8.29
2019-02-26T01:36:13.998Z,8.29
2019-02-26T01:37:12.690Z,8.27
2019-02-26T01:38:14.457Z,8.30
2019-02-26T01:39:13.886Z,8.24
2019-02-26T01:40:15.516Z,8.29
2019-02-26T01:41:13.881Z,8.29
2019-02-26T01:42:13.366Z,8.13
2019-02-26T01:43:12.641Z,8.27
2019-02-26T01:44:12.605Z,8.20
2019-02-26T01:45:12.594Z,8.21
2019-02-26T01:46:14.499Z,8.12
2019-02-26T01:47:12.590Z,8.06
2019-02-26T01:48:16.148Z,8.06
2019-02-26T01:49:13.583Z,8.05
2019-02-26T01:50:13.498Z,8.08
2019-02-26T01:51:12.517Z,8.12
2019-02-26T01:52:13.467Z,8.15
2019-02-26T01:53:14.408Z,8.16
2019-02-26T01:54:14.422Z,8.12
2019-02-26T01:55:12.488Z,8.08
2019-02-26T01:56:12.477Z,8.06
2019-02-26T01:57:12.503Z,8.13
2019-02-26T01:58:15.801Z,8.16
2019-02-26T01:59:12.431Z,8.13
2019-02-26T02:00:12.475Z,8.15
2019-02-26T02:01:14.315Z,8.11
2019-02-26T02:02:17.338Z,8.20
2019-02-26T02:03:13.392Z,8.16
2019-02-26T02:04:13.227Z,8.09
2019-02-26T02:05:12.493Z,8.11
2019-02-26T02:06:14.170Z,8.11
2019-02-26T02:07:12.401Z,8.09
2019-02-26T02:08:13.242Z,8.12
2019-02-26T02:09:14.124Z,8.01
2019-02-26T02:10:12.345Z,7.98
2019-02-26T02:11:12.314Z,7.96
2019-02-26T02:12:12.308Z,7.98
2019-02-26T02:13:12.270Z,8.02
2019-02-26T02:14:12.747Z,8.02
2019-02-26T02:15:12.981Z,8.08
2019-02-26T02:16:12.251Z,7.98
2019-02-26T02:17:13.582Z,7.97
2019-02-26T02:18:12.235Z,7.96
2019-02-26T02:19:15.491Z,8.01
2019-02-26T02:20:13.221Z,7.88
2019-02-26T02:21:12.214Z,7.90
2019-02-26T02:22:14.451Z,7.93
2019-02-26T02:23:12.202Z,7.91
2019-02-26T02:24:13.287Z,7.88
2019-02-26T02:25:12.162Z,7.94
2019-02-26T02:26:13.894Z,7.90
2019-02-26T02:27:12.630Z,7.87
2019-02-26T02:28:12.205Z,7.84
2019-02-26T02:29:12.886Z,7.84
2019-02-26T02:30:18.513Z,7.88
2019-02-26T02:31:13.069Z,7.90
2019-02-26T02:32:12.103Z,7.80
2019-02-26T02:33:17.244Z,7.83
2019-02-26T02:34:13.076Z,7.80
2019-02-26T02:35:12.624Z,7.72
2019-02-26T02:36:14.446Z,7.76
2019-02-26T02:37:12.018Z,7.73
2019-02-26T02:38:11.991Z,7.73
2019-02-26T02:39:15.464Z,7.79
2019-02-26T02:40:11.974Z,7.70
2019-02-26T02:41:11.963Z,7.69
2019-02-26T02:42:14.124Z,7.73
2019-02-26T02:43:13.173Z,7.62
2019-02-26T02:44:14.497Z,7.76
2019-02-26T02:45:16.125Z,7.73
2019-02-26T02:46:12.905Z,7.78
2019-02-26T02:47:11.992Z,7.72
2019-02-26T02:48:14.100Z,7.69
2019-02-26T02:49:13.230Z,7.64
2019-02-26T02:50:12.666Z,7.60
2019-02-26T02:51:13.890Z,7.62
2019-02-26T02:52:12.035Z,7.73
2019-02-26T02:53:11.858Z,7.68
2019-02-26T02:54:13.040Z,7.69
2019-02-26T02:55:13.832Z,7.66
2019-02-26T02:56:12.900Z,7.69
2019-02-26T02:57:11.816Z,7.66
2019-02-26T02:58:13.104Z,7.60
2019-02-26T02:59:13.992Z,7.69
2019-02-26T03:00:11.748Z,7.56
2019-02-26T03:01:14.022Z,7.50
2019-02-26T03:02:12.709Z,7.57
2019-02-26T03:03:11.714Z,7.56
2019-02-26T03:04:14.780Z,7.60
2019-02-26T03:05:12.693Z,7.56
2019-02-26T03:06:12.382Z,7.47
2019-02-26T03:07:11.708Z,7.59
2019-02-26T03:08:13.937Z,7.57
2019-02-26T03:09:14.025Z,7.50
2019-02-26T03:10:12.052Z,7.52
2019-02-26T03:11:11.631Z,7.49
2019-02-26T03:12:11.631Z,7.52
2019-02-26T03:13:11.619Z,7.50
2019-02-26T03:14:13.842Z,7.41
2019-02-26T03:15:11.592Z,7.49
2019-02-26T03:16:13.440Z,7.49
2019-02-26T03:17:14.141Z,7.42
2019-02-26T03:18:14.446Z,7.35
2019-02-26T03:19:12.198Z,7.38
2019-02-26T03:20:11.531Z,7.38
2019-02-26T03:21:11.536Z,7.36
2019-02-26T03:22:12.790Z,7.35
2019-02-26T03:23:15.781Z,7.35
2019-02-26T03:24:12.470Z,7.39
2019-02-26T03:25:11.452Z,7.35
2019-02-26T03:26:14.792Z,7.29
2019-02-26T03:27:11.460Z,7.38
2019-02-26T03:28:11.465Z,7.41
2019-02-26T03:29:11.430Z,7.32
2019-02-26T03:30:20.580Z,7.35
2019-02-26T03:31:12.396Z,7.32
2019-02-26T03:32:11.412Z,7.29
2019-02-26T03:33:11.367Z,7.34
2019-02-26T03:34:18.870Z,7.26
2019-02-26T03:35:13.257Z,7.31
2019-02-26T03:36:13.392Z,7.17
2019-02-26T03:37:11.403Z,7.13
2019-02-26T03:38:11.337Z,7.16
2019-02-26T03:39:11.305Z,7.13
2019-02-26T03:40:11.284Z,7.14
2019-02-26T03:41:11.282Z,7.16
2019-02-26T03:42:14.169Z,7.00
2019-02-26T03:43:13.045Z,7.07
2019-02-26T03:44:11.237Z,7.13
2019-02-26T03:45:11.294Z,7.08
2019-02-26T03:46:11.225Z,7.08
2019-02-26T03:47:11.256Z,7.00
2019-02-26T03:48:11.197Z,7.13
2019-02-26T03:49:11.213Z,7.08
2019-02-26T03:50:11.202Z,7.03
2019-02-26T03:51:11.154Z,7.13
2019-02-26T03:52:15.324Z,7.10
2019-02-26T03:53:11.151Z,7.13
2019-02-26T03:54:11.128Z,7.11
2019-02-26T03:55:12.136Z,7.07
2019-02-26T03:56:14.356Z,7.05
2019-02-26T03:57:11.464Z,7.03
2019-02-26T03:58:11.114Z,7.03
2019-02-26T03:59:11.702Z,7.03
2019-02-26T04:00:11.466Z,6.89
2019-02-26T04:01:13.196Z,6.98
2019-02-26T04:02:12.046Z,6.88
2019-02-26T04:03:12.596Z,6.89
2019-02-26T04:04:11.031Z,6.89
2019-02-26T04:05:11.014Z,6.85
2019-02-26T04:06:12.182Z,6.89
2019-02-26T04:07:10.974Z,6.91
2019-02-26T04:08:10.977Z,6.89
2019-02-26T04:09:13.687Z,6.95
2019-02-26T04:10:10.941Z,6.92
2019-02-26T04:11:10.966Z,6.85
2019-02-26T04:12:12.976Z,6.80
2019-02-26T04:13:10.953Z,6.85
2019-02-26T04:14:12.574Z,6.78
2019-02-26T04:15:10.897Z,6.84
2019-02-26T04:16:10.885Z,6.85
2019-02-26T04:17:10.867Z,6.84
2019-02-26T04:18:10.877Z,6.85
2019-02-26T04:19:10.853Z,6.81
2019-02-26T04:20:10.823Z,6.84
2019-02-26T04:21:12.199Z,6.89
2019-02-26T04:22:13.149Z,6.89
2019-02-26T04:23:11.445Z,6.83
2019-02-26T04:24:11.431Z,6.89
2019-02-26T04:25:10.767Z,6.78
2019-02-26T04:26:10.793Z,6.85
2019-02-26T04:27:10.745Z,6.84
2019-02-26T04:28:11.139Z,6.84
2019-02-26T04:29:10.752Z,6.89
2019-02-26T04:30:11.002Z,6.89
2019-02-26T04:31:10.706Z,6.81
2019-02-26T04:32:12.151Z,6.81
2019-02-26T04:33:11.655Z,6.71
2019-02-26T04:34:10.676Z,6.77
2019-02-26T04:35:10.671Z,6.70
2019-02-26T04:36:11.882Z,6.74
2019-02-26T04:37:12.687Z,6.71
2019-02-26T04:38:10.642Z,6.66
2019-02-26T04:39:13.600Z,6.70
2019-02-26T04:40:12.076Z,6.67
2019-02-26T04:41:13.384Z,6.65
2019-02-26T04:42:14.052Z,6.67
2019-02-26T04:43:12.870Z,6.65
2019-02-26T04:44:10.623Z,6.65
2019-02-26T04:45:10.562Z,6.67
2019-02-26T04:46:11.404Z,6.74
2019-02-26T04:47:10.526Z,6.65
2019-02-26T04:48:14.683Z,6.60
2019-02-26T04:49:11.506Z,6.67
2019-02-26T04:50:10.509Z,6.63
2019-02-26T04:51:10.475Z,6.65
2019-02-26T04:52:14.021Z,6.67
2019-02-26T04:53:11.108Z,6.73
2019-02-26T04:54:10.437Z,6.71
2019-02-26T04:55:10.433Z,6.63
2019-02-26T04:56:12.847Z,6.67
2019-02-26T04:57:10.413Z,6.71
2019-02-26T04:58:12.431Z,6.65
2019-02-26T04:59:12.364Z,6.71
2019-02-26T05:00:10.773Z,6.78
2019-02-26T05:01:12.836Z,6.73
2019-02-26T05:02:10.438Z,6.74
2019-02-26T05:03:11.845Z,6.73
2019-02-26T05:04:10.326Z,6.73
2019-02-26T05:05:10.310Z,6.70
2019-02-26T05:06:10.897Z,6.73
2019-02-26T05:07:13.203Z,6.83
2019-02-26T05:08:12.322Z,6.85
2019-02-26T05:09:10.596Z,6.91
2019-02-26T05:10:10.253Z,6.81
2019-02-26T05:11:14.841Z,6.88
2019-02-26T05:12:11.268Z,6.91
2019-02-26T05:13:10.259Z,6.91
2019-02-26T05:14:11.703Z,6.93
2019-02-26T05:15:13.911Z,6.99
2019-02-26T05:16:11.197Z,6.96
2019-02-26T05:17:10.166Z,6.89
2019-02-26T05:18:10.203Z,6.95
2019-02-26T05:19:10.669Z,6.95
2019-02-26T05:20:12.849Z,6.88
2019-02-26T05:21:12.930Z,6.85
2019-02-26T05:22:10.113Z,6.81
2019-02-26T05:23:10.127Z,6.75
2019-02-26T05:24:12.426Z,6.74
2019-02-26T05:25:14.030Z,6.74
2019-02-26T05:26:12.533Z,6.65
2019-02-26T05:27:12.217Z,6.71
2019-02-26T05:28:14.037Z,6.62
2019-02-26T05:29:10.034Z,6.63
2019-02-26T05:30:13.024Z,6.62
2019-02-26T05:31:13.895Z,6.67
2019-02-26T05:32:10.015Z,6.44
2019-02-26T05:33:09.999Z,6.47
2019-02-26T05:34:12.226Z,6.48
2019-02-26T05:35:11.686Z,6.56
2019-02-26T05:36:12.231Z,6.49
2019-02-26T05:37:11.183Z,6.53
2019-02-26T05:38:09.961Z,6.49
2019-02-26T05:39:09.911Z,6.55
2019-02-26T05:40:12.838Z,6.49
2019-02-26T05:41:10.887Z,6.55
2019-02-26T05:42:09.878Z,6.53
2019-02-26T05:43:09.886Z,6.49
2019-02-26T05:44:10.744Z,6.52
2019-02-26T05:45:09.853Z,6.49
2019-02-26T05:46:09.844Z,6.52
2019-02-26T05:47:09.840Z,6.53
2019-02-26T05:48:09.818Z,6.52
2019-02-26T05:49:13.246Z,6.53
2019-02-26T05:50:16.183Z,6.48
2019-02-26T05:51:11.454Z,6.55
2019-02-26T05:52:09.790Z,6.53
2019-02-26T05:53:11.398Z,6.55
2019-02-26T05:54:12.274Z,6.41
2019-02-26T05:55:13.752Z,6.48
2019-02-26T05:56:11.527Z,6.47
2019-02-26T05:57:25.082Z,6.47
2019-02-26T05:58:13.465Z,6.53
2019-02-26T05:59:13.332Z,6.45
2019-02-26T06:00:13.472Z,6.56
2019-02-26T06:01:09.723Z,6.53
2019-02-26T06:02:10.688Z,6.49
2019-02-26T06:03:11.853Z,6.44
2019-02-26T06:04:11.880Z,6.41
2019-02-26T06:05:11.641Z,6.55
2019-02-26T06:06:09.603Z,6.59
2019-02-26T06:07:09.590Z,6.52
2019-02-26T06:08:09.595Z,6.44
2019-02-26T06:09:09.602Z,6.47
2019-02-26T06:10:09.565Z,6.45
2019-02-26T06:11:09.550Z,6.45
2019-02-26T06:12:09.546Z,6.48
2019-02-26T06:13:10.711Z,6.45
2019-02-26T06:14:10.360Z,6.55
2019-02-26T06:15:09.501Z,6.47
2019-02-26T06:16:09.580Z,6.47
2019-02-26T06:17:10.686Z,6.35
2019-02-26T06:18:09.469Z,6.34
2019-02-26T06:19:11.083Z,6.27
2019-02-26T06:20:11.009Z,6.34
2019-02-26T06:21:09.431Z,6.22
2019-02-26T06:22:14.458Z,6.26
2019-02-26T06:23:10.443Z,6.22
2019-02-26T06:24:09.424Z,6.18
2019-02-26T06:25:13.851Z,6.26
2019-02-26T06:26:14.116Z,6.18
2019-02-26T06:27:13.122Z,6.21
2019-02-26T06:28:12.127Z,6.22
2019-02-26T06:29:09.379Z,6.13
2019-02-26T06:30:11.983Z,6.19
2019-02-26T06:31:11.503Z,6.15
2019-02-26T06:32:09.524Z,6.26
2019-02-26T06:33:11.625Z,6.18
2019-02-26T06:34:11.300Z,6.15
2019-02-26T06:35:11.020Z,6.10
2019-02-26T06:36:09.284Z,6.10
2019-02-26T06:37:10.029Z,6.30
2019-02-26T06:38:11.254Z,6.29
2019-02-26T06:39:09.270Z,6.19
2019-02-26T06:40:09.226Z,6.27
2019-02-26T06:41:09.245Z,6.34
2019-02-26T06:42:10.336Z,6.26
2019-02-26T06:43:09.198Z,6.27
2019-02-26T06:44:09.315Z,6.30
2019-02-26T06:45:10.972Z,6.27
2019-02-26T06:46:11.538Z,6.35
2019-02-26T06:47:09.203Z,6.26
2019-02-26T06:48:12.553Z,6.32
2019-02-26T06:49:10.429Z,6.30
2019-02-26T06:50:11.089Z,6.22
2019-02-26T06:51:09.132Z,6.27
2019-02-26T06:52:10.817Z,6.24
2019-02-26T06:53:11.062Z,6.24
2019-02-26T06:54:09.143Z,6.32
2019-02-26T06:55:09.061Z,6.26
2019-02-26T06:56:09.123Z,6.26
2019-02-26T06:57:09.024Z,6.32
2019-02-26T06:58:09.018Z,6.29
2019-02-26T06:59:09.929Z,6.26
2019-02-26T07:00:09.188Z,6.30
2019-02-26T07:01:09.625Z,6.37
2019-02-26T07:02:10.943Z,6.34
2019-02-26T07:03:08.955Z,6.34
2019-02-26T07:04:12.161Z,6.27
2019-02-26T07:05:08.988Z,6.32
2019-02-26T07:06:08.928Z,6.21
2019-02-26T07:07:13.540Z,6.34
2019-02-26T07:08:09.912Z,6.21
2019-02-26T07:09:10.834Z,6.27
2019-02-26T07:10:08.900Z,6.32
2019-02-26T07:11:08.874Z,6.24
2019-02-26T07:12:08.864Z,6.27
2019-02-26T07:13:09.442Z,6.30
2019-02-26T07:14:10.369Z,6.27
2019-02-26T07:15:11.649Z,6.30
2019-02-26T07:16:08.821Z,6.29
2019-02-26T07:17:08.795Z,6.35
2019-02-26T07:18:10.252Z,6.35
2019-02-26T07:19:09.178Z,6.42
2019-02-26T07:20:08.767Z,6.47
2019-02-26T07:21:08.766Z,6.47
2019-02-26T07:22:11.125Z,6.39
2019-02-26T07:23:10.493Z,6.48
2019-02-26T07:24:08.745Z,6.44
2019-02-26T07:25:10.666Z,6.49
2019-02-26T07:26:08.699Z,6.48
2019-02-26T07:27:09.619Z,6.49
2019-02-26T07:28:08.671Z,6.49
2019-02-26T07:29:10.439Z,6.49
2019-02-26T07:30:08.652Z,6.47
2019-02-26T07:31:11.738Z,6.49
2019-02-26T07:32:08.660Z,6.52
2019-02-26T07:33:10.339Z,6.49
2019-02-26T07:34:08.635Z,6.30
2019-02-26T07:35:09.295Z,6.35
2019-02-26T07:36:08.582Z,6.39
2019-02-26T07:37:09.317Z,6.38
2019-02-26T07:38:08.574Z,6.39
2019-02-26T07:39:10.269Z,6.39
2019-02-26T07:40:10.520Z,6.42
2019-02-26T07:41:08.541Z,6.42
2019-02-26T07:42:09.200Z,6.48
2019-02-26T07:43:11.581Z,6.48
2019-02-26T07:44:12.708Z,6.52
2019-02-26T07:45:15.099Z,6.52
2019-02-26T07:46:10.452Z,6.56
2019-02-26T07:47:09.570Z,6.53
2019-02-26T07:48:08.449Z,6.59
2019-02-26T07:49:08.637Z,6.63
2019-02-26T07:50:09.710Z,6.66
2019-02-26T07:51:08.410Z,6.70
2019-02-26T07:52:08.823Z,6.75
2019-02-26T07:53:08.393Z,6.77
2019-02-26T07:54:08.404Z,6.84
2019-02-26T07:55:08.975Z,6.89
2019-02-26T07:56:08.695Z,6.89
2019-02-26T07:57:08.382Z,6.85
2019-02-26T07:58:09.196Z,6.95
2019-02-26T07:59:09.982Z,7.00
2019-02-26T08:00:08.342Z,6.99
2019-02-26T08:01:08.297Z,6.93
2019-02-26T08:02:08.878Z,7.02
2019-02-26T08:03:08.278Z,7.02
2019-02-26T08:04:09.448Z,7.11
2019-02-26T08:05:08.284Z,7.05
2019-02-26T08:06:09.791Z,7.08
2019-02-26T08:07:08.225Z,7.05
2019-02-26T08:08:09.791Z,7.05
2019-02-26T08:09:10.966Z,7.08
2019-02-26T08:10:10.421Z,7.14
2019-02-26T08:11:08.181Z,7.17
2019-02-26T08:12:10.793Z,7.28
2019-02-26T08:13:08.185Z,7.31
2019-02-26T08:14:08.201Z,7.29
2019-02-26T08:15:10.395Z,7.26
2019-02-26T08:16:08.119Z,7.32
2019-02-26T08:17:08.113Z,7.38
2019-02-26T08:18:08.118Z,7.31
2019-02-26T08:19:08.092Z,7.31
2019-02-26T08:20:10.006Z,7.29
2019-02-26T08:21:08.067Z,7.29
2019-02-26T08:22:08.049Z,7.39
2019-02-26T08:23:08.050Z,7.41
2019-02-26T08:24:08.033Z,7.39
2019-02-26T08:25:08.038Z,7.36
2019-02-26T08:26:08.053Z,7.38
2019-02-26T08:27:08.463Z,7.42
2019-02-26T08:28:08.006Z,7.41
2019-02-26T08:29:09.696Z,7.35
2019-02-26T08:30:07.983Z,7.36
2019-02-26T08:31:11.204Z,7.49
2019-02-26T08:32:08.954Z,7.52
2019-02-26T08:33:07.967Z,7.54
2019-02-26T08:34:07.916Z,7.59
2019-02-26T08:35:07.931Z,7.57
2019-02-26T08:36:07.893Z,7.59
2019-02-26T08:37:07.879Z,7.70
2019-02-26T08:38:07.870Z,7.64
2019-02-26T08:39:07.875Z,7.69
2019-02-26T08:40:09.413Z,7.64
2019-02-26T08:41:07.842Z,7.78
2019-02-26T08:42:07.830Z,7.76
2019-02-26T08:43:07.813Z,7.78
2019-02-26T08:44:07.800Z,7.75
2019-02-26T08:45:07.821Z,7.75
2019-02-26T08:46:09.208Z,7.72
2019-02-26T08:47:09.231Z,7.76
2019-02-26T08:48:07.756Z,7.75
2019-02-26T08:49:08.603Z,7.75
2019-02-26T08:50:10.104Z,7.78
2019-02-26T08:51:10.722Z,7.91
2019-02-26T08:52:08.730Z,8.01
2019-02-26T08:53:07.735Z,8.02
2019-02-26T08:54:08.682Z,8.06
2019-02-26T08:55:07.696Z,8.26
2019-02-26T08:56:08.414Z,8.16
2019-02-26T08:57:07.672Z,8.26
2019-02-26T08:58:08.168Z,8.33
2019-02-26T08:59:07.635Z,8.29
2019-02-26T09:00:07.641Z,8.30
2019-02-26T09:01:07.604Z,8.29
2019-02-26T09:02:07.605Z,8.24
2019-02-26T09:03:08.833Z,8.29
2019-02-26T09:04:07.583Z,8.26
2019-02-26T09:05:09.338Z,8.31
2019-02-26T09:06:12.853Z,8.33
2019-02-26T09:07:08.533Z,8.36
2019-02-26T09:08:08.472Z,8.36
2019-02-26T09:09:07.517Z,8.36
2019-02-26T09:10:09.840Z,8.42
2019-02-26T09:11:10.174Z,8.41
2019-02-26T09:12:07.505Z,8.34
2019-02-26T09:13:09.391Z,8.36
2019-02-26T09:14:09.820Z,8.31
2019-02-26T09:15:07.574Z,8.34
2019-02-26T09:16:07.937Z,8.31
2019-02-26T09:17:07.431Z,8.41
2019-02-26T09:18:07.416Z,8.44
2019-02-26T09:19:07.420Z,8.44
2019-02-26T09:20:09.604Z,8.45
2019-02-26T09:21:07.383Z,8.48
2019-02-26T09:22:09.615Z,8.48
2019-02-26T09:23:07.364Z,8.45
2019-02-26T09:24:07.807Z,8.49
2019-02-26T09:25:07.367Z,8.52
2019-02-26T09:26:07.385Z,8.54
2019-02-26T09:27:07.313Z,8.59
2019-02-26T09:28:07.302Z,8.54
2019-02-26T09:29:07.314Z,8.54
2019-02-26T09:30:08.525Z,8.60
2019-02-26T09:31:09.082Z,8.62
2019-02-26T09:32:09.165Z,8.62
2019-02-26T09:33:08.400Z,8.60
2019-02-26T09:34:07.231Z,8.60
2019-02-26T09:35:07.272Z,8.54
2019-02-26T09:36:10.469Z,8.60
2019-02-26T09:37:08.197Z,8.52
2019-02-26T09:38:07.192Z,8.60
2019-02-26T09:39:08.768Z,8.62
2019-02-26T09:40:07.231Z,8.57
2019-02-26T09:41:07.163Z,8.60
2019-02-26T09:42:09.015Z,8.63
2019-02-26T09:43:07.195Z,8.59
2019-02-26T09:44:08.952Z,8.72
2019-02-26T09:45:07.236Z,8.78
2019-02-26T09:46:10.132Z,8.81
2019-02-26T09:47:08.102Z,8.78
2019-02-26T09:48:09.911Z,8.81
2019-02-26T09:49:11.926Z,8.78
2019-02-26T09:50:10.036Z,8.95
2019-02-26T09:51:09.043Z,8.96
2019-02-26T09:52:07.076Z,8.93
2019-02-26T09:53:07.078Z,9.00
2019-02-26T09:54:07.011Z,8.98
2019-02-26T09:55:07.060Z,8.99
2019-02-26T09:56:07.006Z,9.05
2019-02-26T09:57:06.976Z,9.02
2019-02-26T09:58:06.997Z,9.08
2019-02-26T09:59:07.723Z,9.19
2019-02-26T10:00:06.951Z,9.05
2019-02-26T10:01:08.698Z,9.11
2019-02-26T10:02:07.380Z,9.19
2019-02-26T10:03:08.395Z,9.22
2019-02-26T10:04:06.907Z,9.21
2019-02-26T10:05:08.595Z,9.18
2019-02-26T10:06:06.925Z,9.16
2019-02-26T10:07:09.261Z,9.19
2019-02-26T10:08:06.878Z,9.15
2019-02-26T10:09:10.263Z,9.16
2019-02-26T10:10:08.625Z,9.22
2019-02-26T10:11:06.843Z,9.21
2019-02-26T10:12:07.540Z,9.28
2019-02-26T10:13:06.830Z,9.22
2019-02-26T10:14:07.942Z,9.18
2019-02-26T10:15:06.782Z,9.19
2019-02-26T10:16:08.776Z,9.28
2019-02-26T10:17:06.760Z,9.28
2019-02-26T10:18:09.372Z,9.28
2019-02-26T10:19:07.922Z,9.32
2019-02-26T10:20:08.591Z,9.29
2019-02-26T10:21:09.166Z,9.33
2019-02-26T10:22:09.804Z,9.42
2019-02-26T10:23:07.706Z,9.46
2019-02-26T10:24:06.685Z,9.54
2019-02-26T10:25:06.690Z,9.49
2019-02-26T10:26:09.971Z,9.44
2019-02-26T10:27:08.852Z,9.49
2019-02-26T10:28:09.608Z,9.58
2019-02-26T10:29:07.969Z,9.59
2019-02-26T10:30:08.398Z,9.54
2019-02-26T10:31:09.519Z,9.67
2019-02-26T10:32:06.601Z,9.72
2019-02-26T10:33:06.588Z,9.77
2019-02-26T10:34:10.037Z,9.88
2019-02-26T10:35:09.319Z,9.90
2019-02-26T10:36:09.937Z,9.86
2019-02-26T10:37:06.534Z,9.86
2019-02-26T10:38:10.760Z,9.90
2019-02-26T10:39:08.327Z,9.93
2019-02-26T10:40:07.626Z,9.83
2019-02-26T10:41:06.546Z,9.85
2019-02-26T10:42:06.481Z,9.91
2019-02-26T10:43:06.463Z,9.90
2019-02-26T10:44:06.448Z,9.93
2019-02-26T10:45:06.447Z,9.88
2019-02-26T10:46:06.473Z,9.80
2019-02-26T10:47:08.222Z,9.95
2019-02-26T10:48:06.406Z,9.94
2019-02-26T10:49:06.395Z,9.94
2019-02-26T10:50:06.427Z,10.02
2019-02-26T10:51:07.264Z,9.95
2019-02-26T10:52:06.367Z,10.10
2019-02-26T10:53:10.308Z,10.04
2019-02-26T10:54:09.631Z,10.10
2019-02-26T10:55:07.340Z,10.18
2019-02-26T10:56:06.337Z,10.13
2019-02-26T10:57:07.456Z,10.12
2019-02-26T10:58:10.022Z,10.13
2019-02-26T10:59:09.257Z,10.13
2019-02-26T11:00:10.370Z,10.23
2019-02-26T11:01:06.302Z,10.33
2019-02-26T11:02:06.238Z,10.33
2019-02-26T11:03:07.147Z,10.33
2019-02-26T11:04:06.221Z,10.37
2019-02-26T11:05:06.206Z,10.41
2019-02-26T11:06:07.375Z,10.49
2019-02-26T11:07:08.738Z,10.56
2019-02-26T11:08:09.419Z,10.49
2019-02-26T11:09:06.172Z,10.53
2019-02-26T11:10:06.142Z,10.65
2019-02-26T11:11:08.145Z,10.59
2019-02-26T11:12:08.482Z,10.60
2019-02-26T11:13:06.118Z,10.57
2019-02-26T11:14:08.336Z,10.59
2019-02-26T11:15:06.880Z,10.64
2019-02-26T11:16:06.117Z,10.60
2019-02-26T11:17:06.120Z,10.64
2019-02-26T11:18:06.133Z,10.62
2019-02-26T11:19:07.517Z,10.48
2019-02-26T11:20:07.786Z,10.59
2019-02-26T11:21:06.041Z,10.46
2019-02-26T11:22:06.024Z,10.64
2019-02-26T11:23:08.398Z,10.65
2019-02-26T11:24:06.645Z,10.62
2019-02-26T11:25:05.985Z,10.72
2019-02-26T11:26:06.604Z,10.77
2019-02-26T11:27:05.953Z,10.83
2019-02-26T11:28:07.470Z,10.83
2019-02-26T11:29:05.930Z,10.90
2019-02-26T11:30:05.919Z,10.83
2019-02-26T11:31:05.958Z,10.83
2019-02-26T11:32:07.872Z,10.89
2019-02-26T11:33:08.060Z,10.92
2019-02-26T11:34:09.749Z,10.90
2019-02-26T11:35:06.870Z,10.95
2019-02-26T11:36:08.104Z,10.96
2019-02-26T11:37:08.919Z,11.04
2019-02-26T11:38:05.849Z,11.08
2019-02-26T11:39:06.837Z,11.33
2019-02-26T11:40:05.803Z,11.59
2019-02-26T11:41:05.833Z,11.66
2019-02-26T11:42:05.798Z,11.63
2019-02-26T11:43:11.610Z,11.86
2019-02-26T11:44:09.915Z,11.87
2019-02-26T11:45:09.191Z,11.91
2019-02-26T11:46:06.981Z,12.07
2019-02-26T11:47:05.756Z,12.05
2019-02-26T11:48:08.170Z,12.15
2019-02-26T11:49:05.703Z,12.53
2019-02-26T11:50:07.036Z,13.18
2019-02-26T11:51:05.695Z,13.39
2019-02-26T11:52:05.686Z,13.77
2019-02-26T11:53:09.303Z,14.15
2019-02-26T11:54:08.231Z,14.15
2019-02-26T11:55:06.620Z,14.08
2019-02-26T11:56:05.636Z,13.95
2019-02-26T11:57:08.052Z,13.96
2019-02-26T11:58:09.901Z,13.68
2019-02-26T11:59:07.228Z,13.52
2019-02-26T12:00:06.756Z,13.35
2019-02-26T12:01:05.565Z,13.16
2019-02-26T12:02:06.429Z,13.06
2019-02-26T12:03:05.547Z,12.79
2019-02-26T12:04:06.089Z,12.63
2019-02-26T12:05:07.912Z,12.54
2019-02-26T12:06:07.056Z,12.55
2019-02-26T12:07:07.441Z,12.40
2019-02-26T12:08:05.500Z,12.38
2019-02-26T12:09:06.126Z,12.36
2019-02-26T12:10:09.501Z,12.30
2019-02-26T12:11:08.403Z,12.15
2019-02-26T12:12:08.661Z,12.07
2019-02-26T12:13:05.439Z,12.17
2019-02-26T12:14:05.424Z,12.03
2019-02-26T12:15:07.316Z,11.88
2019-02-26T12:16:05.400Z,11.96
2019-02-26T12:17:05.411Z,11.84
2019-02-26T12:18:05.450Z,11.83
2019-02-26T12:19:06.027Z,11.84
2019-02-26T12:20:05.350Z,11.76
2019-02-26T12:21:07.562Z,11.68
2019-02-26T12:22:06.052Z,11.68
2019-02-26T12:23:07.934Z,11.63
2019-02-26T12:24:06.578Z,11.62
2019-02-26T12:25:08.483Z,11.76
2019-02-26T12:26:06.285Z,11.63
2019-02-26T12:27:07.373Z,11.68
2019-02-26T12:28:06.102Z,11.62
2019-02-26T12:29:05.253Z,11.63
2019-02-26T12:30:06.785Z,11.66
2019-02-26T12:31:08.052Z,11.59
2019-02-26T12:32:05.282Z,11.65
2019-02-26T12:33:07.125Z,11.65
2019-02-26T12:34:05.585Z,11.66
2019-02-26T12:35:05.885Z,11.62
2019-02-26T12:36:07.430Z,11.50
2019-02-26T12:37:06.617Z,11.53
2019-02-26T12:38:17.253Z,11.53
2019-02-26T12:39:06.152Z,11.50
2019-02-26T12:40:05.131Z,11.40
2019-02-26T12:41:08.193Z,11.47
2019-02-26T12:42:07.134Z,11.48
2019-02-26T12:43:06.598Z,11.47
2019-02-26T12:44:10.653Z,11.56
2019-02-26T12:45:07.841Z,11.53
2019-02-26T12:46:08.311Z,11.58
2019-02-26T12:47:05.094Z,11.56
2019-02-26T12:48:06.518Z,11.65
2019-02-26T12:49:05.723Z,11.68
2019-02-26T12:50:06.091Z,11.65
2019-02-26T12:51:07.526Z,11.71
2019-02-26T12:52:05.014Z,11.77
2019-02-26T12:53:05.001Z,11.83
2019-02-26T12:54:06.205Z,11.80
2019-02-26T12:55:08.135Z,11.77
2019-02-26T12:56:08.723Z,11.80
2019-02-26T12:57:05.056Z,11.80
2019-02-26T12:58:04.945Z,11.95
2019-02-26T12:59:07.111Z,11.83
2019-02-26T13:00:06.878Z,11.96
2019-02-26T13:01:04.931Z,11.91
2019-02-26T13:03:08.388Z,12.00
2019-02-26T13:04:06.102Z,12.00
2019-02-26T13:05:06.720Z,12.07
2019-02-26T13:07:08.650Z,11.88
2019-02-26T13:08:06.142Z,11.84
2019-02-26T13:09:04.817Z,11.91
2019-02-26T13:10:05.128Z,11.97
2019-02-26T13:11:05.803Z,11.99
2019-02-26T13:12:04.787Z,11.90
2019-02-26T13:13:07.699Z,12.05
2019-02-26T13:14:04.763Z,11.95
2019-02-26T13:15:06.513Z,12.07